Time;durP1;ratioP1;P1;durP2;ratioP2;P2;SDS_P1;SDS_P2;PMS_P1;PMS_P2;Temp;Humidity;BMP_temperature;BMP_pressure;BME280_temperature;BME280_humidity;BME280_pressure;Samples;Min_cycle;Max_cycle;Signal;HPM_P1;HPM_P2
2022/01/15 00:01:09;;;;;;;4.53;3.97;;;5.70;99.90;;;;;;5032475;28;20238;-80
2022/01/15 00:03:37;;;;;;;6.50;4.78;;;5.70;99.90;;;;;;5031417;28;20206;-80
2022/01/15 00:06:06;;;;;;;5.75;4.38;;;5.70;99.90;;;;;;5032667;28;20238;-80
2022/01/15 00:08:34;;;;;;;4.00;3.15;;;5.70;99.90;;;;;;5032631;28;20290;-80
2022/01/15 00:11:02;;;;;;;4.35;3.28;;;5.70;99.90;;;;;;5031989;28;20267;-80
2022/01/15 00:13:31;;;;;;;4.00;3.70;;;5.70;99.90;;;;;;5032642;28;20206;-80
2022/01/15 00:16:05;;;;;;;3.20;2.75;;;5.70;99.90;;;;;;5032627;28;20301;-80
2022/01/15 00:18:44;;;;;;;3.55;3.25;;;5.80;99.90;;;;;;5032789;28;20229;-80
2022/01/15 00:21:13;;;;;;;5.07;3.92;;;5.70;99.90;;;;;;5032391;28;20270;-80
2022/01/15 00:23:43;;;;;;;5.28;3.95;;;5.80;99.90;;;;;;5032073;28;20238;-80
2022/01/15 00:26:11;;;;;;;7.53;3.85;;;5.70;99.90;;;;;;5032370;28;20260;-80
2022/01/15 00:28:40;;;;;;;3.25;3.00;;;5.70;99.90;;;;;;5032411;28;20199;-80
2022/01/15 00:31:08;;;;;;;2.83;2.58;;;5.70;99.90;;;;;;5032229;28;20207;-81
2022/01/15 00:33:38;;;;;;;7.90;3.75;;;5.70;99.90;;;;;;5032744;28;20241;-80
2022/01/15 00:36:07;;;;;;;3.33;3.03;;;5.70;99.90;;;;;;5032449;28;20209;-80
2022/01/15 00:38:35;;;;;;;4.03;3.60;;;5.70;99.90;;;;;;5032137;28;20230;-80
2022/01/15 00:41:04;;;;;;;3.05;2.85;;;5.80;99.90;;;;;;5031490;28;20202;-80
2022/01/15 00:43:32;;;;;;;3.28;2.90;;;5.80;99.90;;;;;;5032059;28;20202;-80
2022/01/15 00:46:01;;;;;;;3.95;3.55;;;5.80;99.90;;;;;;5032435;28;20211;-80
2022/01/15 00:48:29;;;;;;;4.65;3.45;;;5.80;99.90;;;;;;5032445;28;20213;-79
2022/01/15 00:50:59;;;;;;;3.30;3.08;;;5.80;99.90;;;;;;5031696;28;20285;-80
2022/01/15 00:53:27;;;;;;;3.97;3.58;;;5.80;99.90;;;;;;5032039;28;20297;-80
2022/01/15 00:55:55;;;;;;;3.33;3.03;;;5.80;99.90;;;;;;5032057;28;20261;-80
2022/01/15 00:58:24;;;;;;;2.80;2.60;;;5.80;99.90;;;;;;5032467;28;20252;-80
2022/01/15 01:00:52;;;;;;;5.38;3.60;;;5.80;99.90;;;;;;5031908;28;20266;-80
2022/01/15 01:03:20;;;;;;;3.42;2.80;;;5.80;99.90;;;;;;5030812;28;20270;-80
2022/01/15 01:05:49;;;;;;;3.10;2.88;;;5.70;99.90;;;;;;5032038;28;20222;-80
2022/01/15 01:08:18;;;;;;;3.65;3.00;;;5.70;99.90;;;;;;5031906;28;20230;-80
2022/01/15 01:10:53;;;;;;;3.95;3.35;;;5.70;99.90;;;;;;5031660;28;20285;-80
2022/01/15 01:13:42;;;;;;;3.63;3.30;;;5.70;99.90;;;;;;5033464;28;20236;-81
2022/01/15 01:24:36;;;;;;;3.17;2.95;;;5.70;99.90;;;;;;5036110;28;20233;-80
2022/01/15 01:27:11;;;;;;;4.43;3.83;;;5.70;99.90;;;;;;5036128;28;20210;-80
2022/01/15 01:29:51;;;;;;;3.60;3.22;;;5.60;99.90;;;;;;5035419;28;20214;-80
2022/01/15 01:32:37;;;;;;;3.80;3.50;;;5.60;99.90;;;;;;5036034;28;20289;-80
2022/01/15 01:35:12;;;;;;;4.22;3.72;;;5.60;99.90;;;;;;5035670;28;20312;-80
2022/01/15 01:37:44;;;;;;;3.65;3.30;;;5.60;99.90;;;;;;5036135;28;20297;-80
2022/01/15 01:40:17;;;;;;;5.50;4.00;;;5.60;99.90;;;;;;5035500;28;20224;-80
2022/01/15 01:42:55;;;;;;;6.05;3.33;;;5.60;99.90;;;;;;5035705;28;20305;-80
2022/01/15 01:45:23;;;;;;;4.60;3.67;;;5.60;99.90;;;;;;5035851;28;20236;-80
2022/01/15 01:47:52;;;;;;;2.95;2.67;;;5.60;99.90;;;;;;5035560;28;20206;-80
2022/01/15 01:50:23;;;;;;;3.35;3.05;;;5.60;99.90;;;;;;5035252;28;20198;-80
2022/01/15 01:52:55;;;;;;;4.43;3.50;;;5.60;99.90;;;;;;5036100;28;20234;-80
2022/01/15 01:55:27;;;;;;;5.75;3.95;;;5.60;99.90;;;;;;5035383;28;20317;-80
2022/01/15 01:57:57;;;;;;;6.43;3.97;;;5.60;99.90;;;;;;5035651;28;20245;-80
2022/01/15 02:00:27;;;;;;;3.78;3.17;;;5.60;99.90;;;;;;5034724;28;20312;-80
2022/01/15 02:02:56;;;;;;;4.28;3.83;;;5.60;99.90;;;;;;5035775;28;20206;-80
2022/01/15 02:05:25;;;;;;;4.60;3.17;;;5.60;99.90;;;;;;5035813;28;20230;-80
2022/01/15 02:07:54;;;;;;;4.05;3.22;;;5.60;99.90;;;;;;5035319;28;20206;-80
2022/01/15 02:10:23;;;;;;;4.20;3.15;;;5.60;99.90;;;;;;5034711;28;20305;-80
2022/01/15 02:12:55;;;;;;;3.50;3.20;;;5.60;99.90;;;;;;5035181;28;20240;-80
2022/01/15 02:15:24;;;;;;;4.00;3.60;;;5.60;99.90;;;;;;5035274;28;20230;-80
2022/01/15 02:17:52;;;;;;;5.55;3.50;;;5.60;99.90;;;;;;5035387;28;20234;-80
2022/01/15 02:25:58;;;;;;;4.32;3.83;;;5.50;99.90;;;;;;5035091;28;20301;-80
2022/01/15 02:28:30;;;;;;;4.15;3.75;;;5.50;99.90;;;;;;5035054;28;20281;-80
2022/01/15 02:31:00;;;;;;;4.30;3.90;;;5.50;99.90;;;;;;5034706;28;20206;-80
2022/01/15 02:33:29;;;;;;;4.72;4.20;;;5.50;99.90;;;;;;5035032;28;20276;-80
2022/01/15 02:36:00;;;;;;;4.10;3.72;;;5.50;99.90;;;;;;5034733;28;20234;-80
2022/01/15 02:38:28;;;;;;;5.30;4.47;;;5.50;99.90;;;;;;5034671;28;20214;-80
2022/01/15 02:40:56;;;;;;;7.63;4.88;;;5.50;99.90;;;;;;5034117;28;20230;-80
2022/01/15 02:43:29;;;;;;;4.47;3.92;;;5.50;99.90;;;;;;5034807;28;20202;-80
2022/01/15 02:46:00;;;;;;;4.20;3.80;;;5.50;99.90;;;;;;5035234;28;20260;-80
2022/01/15 02:48:30;;;;;;;5.85;4.85;;;5.40;99.90;;;;;;5034672;28;20301;-80
2022/01/15 02:50:59;;;;;;;9.05;4.70;;;5.40;99.90;;;;;;5033999;28;20209;-79
2022/01/15 02:53:27;;;;;;;6.68;4.88;;;5.40;99.90;;;;;;5034238;28;20217;-80
2022/01/15 02:55:56;;;;;;;6.93;5.03;;;5.30;99.90;;;;;;5034487;28;20237;-80
2022/01/15 02:58:25;;;;;;;4.90;4.40;;;5.30;99.90;;;;;;5034623;28;20214;-81
2022/01/15 03:00:54;;;;;;;4.10;3.72;;;5.30;99.90;;;;;;5033773;28;20222;-80
2022/01/15 03:03:23;;;;;;;3.88;3.38;;;5.30;99.90;;;;;;5033191;28;20209;-80
2022/01/15 03:05:51;;;;;;;4.40;4.00;;;5.30;99.90;;;;;;5034444;28;20233;-80
2022/01/15 03:08:21;;;;;;;3.72;3.40;;;5.30;99.90;;;;;;5034235;28;20211;-80
2022/01/15 03:10:49;;;;;;;4.13;3.55;;;5.30;99.90;;;;;;5033661;28;20199;-80
2022/01/15 03:13:18;;;;;;;3.72;3.35;;;5.30;99.90;;;;;;5034200;28;20210;-80
2022/01/15 03:15:46;;;;;;;3.10;2.85;;;5.40;99.90;;;;;;5033981;28;20300;-80
2022/01/15 03:18:14;;;;;;;5.28;3.28;;;5.40;99.90;;;;;;5034170;28;20289;-80
2022/01/15 03:20:43;;;;;;;5.55;3.92;;;5.40;99.90;;;;;;5033582;28;20246;-80
2022/01/15 03:23:11;;;;;;;5.10;3.78;;;5.40;99.90;;;;;;5034028;28;20233;-80
2022/01/15 03:25:41;;;;;;;3.55;3.25;;;5.40;99.90;;;;;;5034109;28;20246;-80
2022/01/15 03:28:09;;;;;;;2.92;2.63;;;5.40;99.90;;;;;;5034158;28;20198;-80
2022/01/15 03:30:38;;;;;;;3.97;3.28;;;5.40;99.90;;;;;;5033318;28;20233;-80
2022/01/15 03:33:07;;;;;;;3.83;3.47;;;5.50;99.90;;;;;;5034072;28;20207;-80
2022/01/15 03:35:37;;;;;;;3.55;3.22;;;5.40;99.90;;;;;;5033477;28;20309;-80
2022/01/15 03:38:07;;;;;;;3.38;3.08;;;5.40;99.90;;;;;;5033829;28;20311;-80
2022/01/15 03:40:36;;;;;;;3.67;3.38;;;5.50;99.90;;;;;;5033143;28;20287;-80
2022/01/15 03:43:07;;;;;;;4.20;3.80;;;5.50;99.90;;;;;;5033600;28;20281;-80
2022/01/15 03:45:35;;;;;;;4.63;3.92;;;5.50;99.90;;;;;;5033600;28;20237;-80
2022/01/15 03:48:04;;;;;;;6.75;4.38;;;5.50;99.90;;;;;;5033384;28;20253;-80
2022/01/15 03:50:32;;;;;;;5.55;3.58;;;5.40;99.90;;;;;;5033222;28;20210;-80
2022/01/15 03:53:00;;;;;;;3.88;3.40;;;5.40;99.90;;;;;;5033540;28;20214;-80
2022/01/15 03:55:29;;;;;;;4.10;3.45;;;5.40;99.90;;;;;;5033297;28;20245;-80
2022/01/15 03:57:59;;;;;;;3.53;3.22;;;5.40;99.90;;;;;;5033290;28;20206;-80
2022/01/15 04:00:30;;;;;;;4.65;3.42;;;5.40;99.90;;;;;;5032467;28;20219;-80
2022/01/15 04:02:58;;;;;;;3.15;2.80;;;5.40;99.90;;;;;;5031942;28;20210;-80
2022/01/15 04:05:27;;;;;;;3.35;3.05;;;5.40;99.90;;;;;;5033094;28;20226;-80
2022/01/15 04:07:55;;;;;;;2.85;2.65;;;5.40;99.90;;;;;;5032882;28;20262;-79
2022/01/15 04:10:24;;;;;;;3.72;3.00;;;5.40;99.90;;;;;;5032552;28;20206;-80
2022/01/15 04:12:52;;;;;;;4.53;3.08;;;5.40;99.90;;;;;;5033673;28;20213;-80
2022/01/15 04:15:21;;;;;;;2.88;2.38;;;5.40;99.90;;;;;;5032863;28;20309;-80
2022/01/15 04:17:52;;;;;;;2.92;2.58;;;5.50;99.90;;;;;;5033175;28;20230;-80
2022/01/15 04:20:23;;;;;;;3.55;2.92;;;5.50;99.90;;;;;;5032294;28;20207;-80
2022/01/15 04:22:54;;;;;;;2.78;2.58;;;5.50;99.90;;;;;;5032911;28;20210;-80
2022/01/15 04:25:23;;;;;;;2.42;2.22;;;5.50;99.90;;;;;;5032815;28;20305;-80
2022/01/15 04:27:51;;;;;;;2.28;2.08;;;5.50;99.90;;;;;;5032597;28;20258;-79
2022/01/15 04:30:22;;;;;;;2.20;2.00;;;5.60;99.90;;;;;;5032510;28;20206;-80
2022/01/15 04:32:52;;;;;;;2.47;2.28;;;5.60;99.90;;;;;;5032624;28;20207;-80
2022/01/15 04:35:20;;;;;;;3.90;2.58;;;5.60;99.90;;;;;;5032625;28;20253;-80
2022/01/15 04:37:53;;;;;;;2.67;2.38;;;5.60;99.90;;;;;;5032607;28;20293;-80
2022/01/15 04:40:21;;;;;;;2.97;2.65;;;5.60;99.90;;;;;;5031941;28;20221;-80
2022/01/15 04:42:50;;;;;;;2.70;2.50;;;5.60;99.90;;;;;;5032653;28;20296;-80
2022/01/15 04:45:18;;;;;;;5.00;3.00;;;5.60;99.90;;;;;;5032678;28;20290;-80
2022/01/15 04:47:46;;;;;;;2.78;2.47;;;5.50;99.90;;;;;;5031653;28;20213;-80
2022/01/15 04:50:18;;;;;;;4.00;3.25;;;5.50;99.90;;;;;;5031831;28;20218;-80
2022/01/15 04:52:47;;;;;;;2.95;2.60;;;5.50;99.90;;;;;;5032284;28;20207;-80
2022/01/15 04:55:15;;;;;;;3.10;2.90;;;5.50;99.90;;;;;;5032196;28;20241;-80
2022/01/15 04:57:44;;;;;;;2.90;2.70;;;5.50;99.90;;;;;;5032384;28;20310;-80
2022/01/15 05:00:15;;;;;;;3.78;2.95;;;5.50;99.90;;;;;;5032266;28;20206;-80
2022/01/15 05:02:44;;;;;;;4.95;3.70;;;5.50;99.90;;;;;;5032225;28;20231;-80
2022/01/15 05:05:13;;;;;;;4.15;3.35;;;5.40;99.90;;;;;;5032205;28;20229;-80
2022/01/15 05:07:43;;;;;;;3.25;3.00;;;5.40;99.90;;;;;;5032130;28;20213;-80
2022/01/15 05:10:16;;;;;;;7.32;3.47;;;5.40;99.90;;;;;;5032226;28;20216;-80
2022/01/15 05:12:46;;;;;;;4.88;3.72;;;5.40;99.90;;;;;;5032209;28;20222;-80
2022/01/15 05:15:16;;;;;;;4.57;3.80;;;5.40;99.90;;;;;;5031984;28;20241;-80
2022/01/15 05:17:45;;;;;;;4.43;4.03;;;5.40;99.90;;;;;;5032496;28;20202;-79
2022/01/15 05:20:17;;;;;;;5.50;3.80;;;5.30;99.90;;;;;;5031549;28;20203;-80
2022/01/15 05:22:48;;;;;;;4.47;4.07;;;5.30;99.90;;;;;;5031832;28;20237;-80
2022/01/15 05:25:18;;;;;;;12.52;4.75;;;5.30;99.90;;;;;;5032470;28;20258;-80
2022/01/15 05:27:47;;;;;;;7.55;4.47;;;5.20;99.90;;;;;;5032277;28;20230;-80
2022/01/15 05:30:15;;;;;;;4.75;4.30;;;5.20;99.90;;;;;;5031560;28;20289;-79
2022/01/15 05:32:44;;;;;;;8.80;4.88;;;5.20;99.90;;;;;;5031937;28;20298;-79
2022/01/15 05:35:12;;;;;;;6.65;4.80;;;5.20;99.90;;;;;;5032045;28;20230;-80
2022/01/15 05:37:41;;;;;;;5.55;4.75;;;5.20;99.90;;;;;;5032046;28;20207;-80
2022/01/15 05:40:12;;;;;;;9.45;5.05;;;5.10;99.90;;;;;;5031490;28;20206;-80
2022/01/15 05:42:41;;;;;;;4.95;4.32;;;5.10;99.90;;;;;;5031751;28;20230;-79
2022/01/15 05:45:11;;;;;;;4.63;4.20;;;5.10;99.90;;;;;;5031741;28;20233;-80
2022/01/15 05:47:39;;;;;;;7.45;4.07;;;5.10;99.90;;;;;;5031781;28;20209;-80
2022/01/15 05:50:09;;;;;;;4.40;4.00;;;5.10;99.90;;;;;;5031412;28;20294;-80
2022/01/15 05:52:37;;;;;;;4.55;4.15;;;5.10;99.90;;;;;;5031930;28;20266;-79
2022/01/15 05:55:06;;;;;;;5.97;4.88;;;5.10;99.90;;;;;;5032150;28;20234;-80
2022/01/15 05:57:36;;;;;;;9.63;5.05;;;5.10;99.90;;;;;;5031978;28;20225;-79
2022/01/15 06:00:06;;;;;;;5.30;4.80;;;5.10;99.90;;;;;;5033455;28;20241;-79
2022/01/15 06:02:34;;;;;;;4.85;4.05;;;5.10;99.90;;;;;;5033986;28;20237;-80
2022/01/15 06:05:02;;;;;;;5.32;4.47;;;5.10;99.90;;;;;;5035220;28;20310;-79
2022/01/15 06:07:31;;;;;;;4.70;4.03;;;5.00;99.90;;;;;;5035361;28;20281;-80
2022/01/15 06:09:59;;;;;;;6.72;4.50;;;5.10;99.90;;;;;;5034726;28;20293;-80
2022/01/15 06:12:31;;;;;;;6.35;4.35;;;5.10;99.90;;;;;;5035095;28;20298;-80
2022/01/15 06:15:01;;;;;;;3.67;3.20;;;5.10;99.90;;;;;;5035405;28;20252;-79
2022/01/15 06:17:29;;;;;;;4.65;4.05;;;5.10;99.90;;;;;;5035448;28;20293;-80
2022/01/15 06:19:57;;;;;;;4.28;3.83;;;5.10;99.90;;;;;;5034867;28;20210;-80
2022/01/15 06:22:26;;;;;;;4.82;3.47;;;5.10;99.90;;;;;;5034760;28;20229;-79
2022/01/15 06:24:54;;;;;;;5.07;3.58;;;5.10;99.90;;;;;;5034546;28;20232;-79
2022/01/15 06:27:27;;;;;;;3.53;3.22;;;5.20;99.90;;;;;;5035173;28;20298;-79
2022/01/15 06:29:56;;;;;;;3.53;3.22;;;5.20;99.90;;;;;;5034703;28;20233;-79
2022/01/15 06:32:28;;;;;;;3.63;3.33;;;5.20;99.90;;;;;;5035278;28;20294;-80
2022/01/15 06:34:56;;;;;;;6.18;4.22;;;5.10;99.90;;;;;;5034678;28;20226;-80
2022/01/15 06:37:24;;;;;;;4.82;4.35;;;5.20;99.90;;;;;;5034673;28;20210;-80
2022/01/15 06:39:53;;;;;;;6.78;4.30;;;5.20;99.90;;;;;;5034471;28;20285;-80
2022/01/15 06:42:21;;;;;;;4.75;4.05;;;5.10;99.90;;;;;;5034614;28;20305;-80
2022/01/15 06:44:49;;;;;;;3.60;3.33;;;5.20;99.90;;;;;;5034203;28;20313;-80
2022/01/15 06:47:18;;;;;;;3.88;3.42;;;5.20;99.90;;;;;;5034920;28;20230;-80
2022/01/15 06:49:48;;;;;;;4.22;3.33;;;5.10;99.90;;;;;;5033874;28;20301;-79
2022/01/15 06:52:16;;;;;;;4.18;3.05;;;5.10;99.90;;;;;;5034516;28;20236;-80
2022/01/15 06:54:44;;;;;;;3.95;3.55;;;5.10;99.90;;;;;;5034404;28;20223;-79
2022/01/15 06:57:13;;;;;;;4.28;3.88;;;5.10;99.90;;;;;;5034548;28;20218;-80
2022/01/15 06:59:44;;;;;;;4.70;3.50;;;5.10;99.90;;;;;;5033639;28;20557;-80
2022/01/15 07:02:12;;;;;;;4.75;3.55;;;5.10;99.90;;;;;;5034054;28;20222;-80
2022/01/15 07:04:41;;;;;;;4.35;3.33;;;5.10;99.90;;;;;;5034480;28;20233;-80
2022/01/15 07:07:11;;;;;;;5.10;3.55;;;5.10;99.90;;;;;;5034298;28;20210;-79
2022/01/15 07:09:39;;;;;;;4.10;3.35;;;5.20;99.90;;;;;;5033943;28;20202;-80
2022/01/15 07:12:09;;;;;;;4.22;3.70;;;5.20;99.90;;;;;;5033024;28;20203;-80
2022/01/15 07:14:37;;;;;;;4.78;4.05;;;5.20;99.90;;;;;;5033955;28;20309;-80
2022/01/15 07:17:06;;;;;;;3.75;3.35;;;5.20;99.90;;;;;;5034076;28;20206;-80
2022/01/15 07:19:35;;;;;;;3.60;3.00;;;5.20;99.90;;;;;;5033627;28;20202;-80
2022/01/15 07:22:03;;;;;;;3.15;2.85;;;5.20;99.90;;;;;;5034180;28;20232;-80
2022/01/15 07:24:33;;;;;;;11.48;3.70;;;5.20;99.90;;;;;;5033533;28;20286;-80
2022/01/15 07:27:03;;;;;;;5.43;3.40;;;5.20;99.90;;;;;;5033908;28;20210;-80
2022/01/15 07:29:31;;;;;;;4.43;3.80;;;5.20;99.90;;;;;;5033640;28;20268;-80
2022/01/15 07:32:00;;;;;;;5.47;3.55;;;5.20;99.90;;;;;;5033576;28;20248;-80
2022/01/15 07:34:28;;;;;;;7.20;4.10;;;5.20;99.90;;;;;;5034097;28;20265;-80
2022/01/15 07:36:58;;;;;;;4.32;3.58;;;5.30;99.90;;;;;;5033755;28;20314;-80
2022/01/15 07:39:27;;;;;;;4.35;3.80;;;5.30;99.90;;;;;;5033025;28;20241;-80
2022/01/15 07:41:57;;;;;;;4.93;3.80;;;5.30;99.90;;;;;;5033430;28;20206;-80
2022/01/15 07:44:25;;;;;;;4.18;3.78;;;5.30;99.90;;;;;;5033198;28;20222;-80
2022/01/15 07:46:54;;;;;;;5.20;4.13;;;5.30;99.90;;;;;;5033701;28;20273;-80
2022/01/15 07:49:22;;;;;;;5.80;3.88;;;5.30;99.90;;;;;;5033246;28;20238;-80
2022/01/15 07:51:51;;;;;;;3.90;3.40;;;5.30;99.90;;;;;;5033538;28;20297;-80
2022/01/15 07:54:19;;;;;;;4.07;3.67;;;5.30;99.90;;;;;;5033408;28;20249;-79
2022/01/15 07:56:48;;;;;;;4.88;3.90;;;5.40;99.90;;;;;;5033307;28;20306;-80
2022/01/15 07:59:17;;;;;;;4.05;3.65;;;5.40;99.90;;;;;;5032879;28;20223;-80
2022/01/15 08:01:46;;;;;;;3.95;3.40;;;5.50;99.90;;;;;;5033574;28;20210;-80
2022/01/15 08:04:14;;;;;;;3.80;3.33;;;5.50;99.90;;;;;;5032748;28;20227;-80
2022/01/15 08:06:43;;;;;;;4.07;3.42;;;5.50;99.90;;;;;;5033120;28;20275;-80
2022/01/15 08:09:11;;;;;;;6.20;3.58;;;5.50;99.90;;;;;;5032278;28;20249;-80
2022/01/15 08:11:39;;;;;;;6.93;4.28;;;5.50;99.90;;;;;;5033150;28;20313;-80
2022/01/15 08:14:07;;;;;;;3.20;2.97;;;5.60;99.90;;;;;;5033451;28;20309;-80
2022/01/15 08:16:37;;;;;;;3.63;3.33;;;5.60;99.90;;;;;;5032951;28;20214;-80
2022/01/15 08:19:06;;;;;;;6.38;3.65;;;5.60;99.90;;;;;;5032239;28;20214;-80
2022/01/15 08:21:34;;;;;;;3.72;3.33;;;5.60;99.90;;;;;;5032886;28;20297;-80
2022/01/15 08:24:02;;;;;;;4.80;4.10;;;5.60;99.90;;;;;;5032369;28;20237;-80
2022/01/15 08:26:31;;;;;;;3.42;3.13;;;5.60;99.90;;;;;;5032944;28;20206;-80
2022/01/15 08:28:59;;;;;;;3.97;3.63;;;5.60;99.90;;;;;;5032345;28;20206;-80
2022/01/15 08:31:27;;;;;;;8.23;4.40;;;5.60;99.90;;;;;;5032731;28;20240;-79
2022/01/15 08:33:58;;;;;;;7.45;3.85;;;5.60;99.90;;;;;;5032334;28;20245;-80
2022/01/15 08:36:27;;;;;;;4.07;3.67;;;5.60;99.90;;;;;;5032972;28;20233;-80
2022/01/15 08:38:55;;;;;;;6.63;4.28;;;5.70;99.90;;;;;;5032105;28;20302;-80
2022/01/15 08:41:24;;;;;;;4.15;3.80;;;5.70;99.90;;;;;;5032809;28;20203;-80
2022/01/15 08:43:53;;;;;;;4.65;3.95;;;5.80;99.90;;;;;;5032157;28;20280;-80
2022/01/15 08:46:21;;;;;;;4.57;3.90;;;5.80;99.90;;;;;;5032448;28;20208;-80
2022/01/15 08:48:50;;;;;;;4.63;4.22;;;5.80;99.90;;;;;;5032099;28;20213;-79
2022/01/15 08:51:20;;;;;;;3.83;3.42;;;5.90;99.90;;;;;;5032605;28;20214;-80
2022/01/15 08:53:49;;;;;;;6.60;3.83;;;5.90;99.90;;;;;;5032590;28;20262;-80
2022/01/15 08:56:20;;;;;;;4.97;4.20;;;6.00;99.90;;;;;;5032185;28;20301;-80
2022/01/15 08:58:49;;;;;;;3.25;3.00;;;6.00;99.90;;;;;;5031633;28;20293;-80
2022/01/15 09:01:17;;;;;;;4.15;3.38;;;6.10;99.90;;;;;;5032434;28;20281;-79
2022/01/15 09:03:46;;;;;;;2.78;2.58;;;6.10;99.90;;;;;;5030762;28;20226;-80
2022/01/15 09:06:14;;;;;;;4.72;3.88;;;6.20;99.90;;;;;;5032350;28;20233;-79
2022/01/15 09:08:45;;;;;;;3.17;2.88;;;6.20;99.90;;;;;;5032204;28;20205;-79
2022/01/15 09:11:13;;;;;;;3.72;3.38;;;6.20;99.90;;;;;;5032134;28;20214;-80
2022/01/15 09:13:43;;;;;;;4.00;3.55;;;6.10;99.90;;;;;;5032311;28;20289;-79
2022/01/15 09:16:11;;;;;;;3.10;2.80;;;6.20;99.90;;;;;;5032535;28;20214;-80
2022/01/15 09:18:39;;;;;;;3.70;3.30;;;6.20;99.90;;;;;;5031903;28;20214;-79
2022/01/15 09:21:08;;;;;;;3.30;3.10;;;6.20;99.90;;;;;;5032218;28;20233;-79
2022/01/15 09:23:36;;;;;;;5.03;3.40;;;6.20;99.90;;;;;;5032042;28;20230;-79
2022/01/15 09:26:18;;;;;;;4.90;4.07;;;6.30;99.90;;;;;;5031663;28;20288;-79
2022/01/15 09:31:33;;;;;;;3.45;3.03;;;6.30;99.90;;;;;;5032262;28;20218;-80
2022/01/15 09:34:01;;;;;;;7.40;4.65;;;6.40;99.90;;;;;;5032835;28;20306;-79
2022/01/15 09:36:29;;;;;;;5.13;4.63;;;6.40;99.90;;;;;;5035877;28;20252;-79
2022/01/15 09:38:58;;;;;;;5.35;3.75;;;6.40;99.90;;;;;;5035345;28;20232;-79
2022/01/15 09:41:28;;;;;;;4.80;3.90;;;6.40;99.90;;;;;;5035862;28;20206;-79
2022/01/15 09:43:57;;;;;;;7.72;2.75;;;6.40;99.90;;;;;;5035903;28;20256;-79
2022/01/15 09:46:26;;;;;;;3.45;3.15;;;6.40;99.90;;;;;;5035894;28;20294;-80
2022/01/15 09:48:54;;;;;;;3.97;3.35;;;6.40;99.90;;;;;;5035394;28;20212;-80
2022/01/15 09:51:23;;;;;;;3.35;3.03;;;6.50;99.90;;;;;;5035584;28;20208;-80
2022/01/15 09:53:52;;;;;;;7.93;3.75;;;6.50;99.90;;;;;;5035949;28;20203;-80
2022/01/15 09:56:20;;;;;;;4.03;3.08;;;6.60;99.90;;;;;;5035755;28;20245;-80
2022/01/15 09:58:52;;;;;;;3.50;3.20;;;6.60;99.90;;;;;;5035381;28;20289;-79
2022/01/15 10:01:21;;;;;;;7.95;3.25;;;6.70;99.90;;;;;;5035667;28;20214;-79
2022/01/15 10:03:51;;;;;;;7.00;3.30;;;6.70;99.90;;;;;;5034771;28;20249;-79
2022/01/15 10:06:19;;;;;;;2.55;2.35;;;6.80;99.90;;;;;;5035150;28;20210;-80
2022/01/15 10:09:00;;;;;;;2.65;2.35;;;6.90;99.90;;;;;;5034929;28;20202;-80
2022/01/15 10:11:46;;;;;;;2.63;2.40;;;6.90;99.90;;;;;;5035304;28;20290;-79
2022/01/15 10:14:34;;;;;;;2.60;2.40;;;6.90;99.90;;;;;;5035169;28;20218;-79
2022/01/15 10:17:20;;;;;;;2.88;2.47;;;6.90;99.90;;;;;;5035382;28;20214;-80
2022/01/15 10:19:48;;;;;;;3.05;2.72;;;6.90;99.90;;;;;;5034585;28;20203;-80
2022/01/15 10:22:19;;;;;;;3.47;3.08;;;7.00;99.90;;;;;;5035039;28;20202;-79
2022/01/15 10:24:55;;;;;;;3.10;2.45;;;7.00;99.90;;;;;;5034809;28;20253;-80
2022/01/15 10:27:28;;;;;;;2.83;2.63;;;7.10;99.90;;;;;;5035057;28;20201;-80
2022/01/15 10:30:05;;;;;;;2.75;2.50;;;7.10;99.90;;;;;;5035092;28;20211;-79
2022/01/15 10:32:36;;;;;;;2.92;2.35;;;7.10;99.90;;;;;;5035037;28;20225;-79
2022/01/15 10:35:11;;;;;;;2.78;2.55;;;7.10;99.90;;;;;;5034812;28;20222;-80
2022/01/15 10:37:52;;;;;;;1.98;1.83;;;7.10;99.90;;;;;;5035335;28;20277;-79
2022/01/15 10:40:22;;;;;;;3.50;2.92;;;7.20;99.90;;;;;;5034018;28;20267;-79
2022/01/15 10:42:58;;;;;;;3.28;2.80;;;7.10;99.90;;;;;;5035402;28;20241;-79
2022/01/15 10:45:31;;;;;;;2.42;2.22;;;7.00;99.90;;;;;;5034360;28;20225;-80
2022/01/15 10:48:02;;;;;;;2.58;2.28;;;7.00;99.90;;;;;;5034812;28;20274;-80
2022/01/15 10:50:34;;;;;;;4.25;3.00;;;7.10;99.90;;;;;;5034810;28;20207;-80
2022/01/15 10:53:07;;;;;;;6.47;2.75;;;7.20;99.90;;;;;;5035175;28;20206;-80
2022/01/15 10:55:45;;;;;;;3.60;2.83;;;7.40;99.90;;;;;;5035299;28;20399;-80
2022/01/15 10:58:16;;;;;;;2.70;2.50;;;7.50;99.90;;;;;;5034260;28;20240;-77
2022/01/15 11:00:49;;;;;;;2.83;2.63;;;7.60;99.90;;;;;;5033749;28;20290;-77
2022/01/15 11:03:19;;;;;;;3.42;3.10;;;7.90;99.90;;;;;;5034449;28;20285;-77
2022/01/15 11:05:48;;;;;;;2.50;2.13;;;8.30;99.90;;;;;;5034174;28;20317;-76
2022/01/15 11:08:18;;;;;;;9.48;2.55;;;9.00;99.90;;;;;;5034411;28;20229;-76
2022/01/15 11:10:49;;;;;;;2.08;1.92;;;9.70;99.90;;;;;;5033600;28;20297;-77
2022/01/15 11:13:19;;;;;;;2.58;2.35;;;10.20;99.90;;;;;;5033964;28;20294;-77
2022/01/15 11:15:51;;;;;;;2.90;2.65;;;10.50;99.90;;;;;;5034235;28;20301;-77
2022/01/15 11:18:21;;;;;;;2.50;2.30;;;10.60;99.50;;;;;;5034353;28;20294;-76
2022/01/15 11:20:52;;;;;;;4.80;2.80;;;10.40;99.50;;;;;;5033063;28;20228;-77
2022/01/15 11:23:22;;;;;;;2.45;2.25;;;10.20;99.80;;;;;;5033495;28;20310;-77
2022/01/15 11:25:51;;;;;;;2.60;2.40;;;10.30;99.20;;;;;;5033397;28;20294;-77
2022/01/15 11:28:23;;;;;;;2.90;2.67;;;10.70;99.90;;;;;;5034249;28;20222;-77
2022/01/15 11:30:55;;;;;;;4.45;3.13;;;11.30;99.90;;;;;;5033659;28;20206;-77
2022/01/15 11:33:26;;;;;;;4.88;3.22;;;12.20;97.50;;;;;;5033191;28;20203;-77
2022/01/15 11:35:55;;;;;;;3.80;3.03;;;12.70;95.70;;;;;;5033195;28;20310;-77
2022/01/15 11:38:40;;;;;;;3.05;2.70;;;13.10;94.40;;;;;;5033343;28;20237;-77
2022/01/15 11:41:39;;;;;;;3.33;3.10;;;13.20;92.90;;;;;;5032720;28;20214;-77
2022/01/15 11:44:10;;;;;;;3.13;2.83;;;12.60;92.80;;;;;;5033333;28;20357;-76
2022/01/15 11:46:46;;;;;;;3.92;3.25;;;12.30;92.90;;;;;;5033681;28;20194;-77
2022/01/15 11:49:36;;;;;;;2.75;2.55;;;12.20;93.30;;;;;;5033062;28;20238;-77
2022/01/15 11:52:34;;;;;;;4.85;2.80;;;12.30;93.00;;;;;;5033315;28;20226;-77
2022/01/15 11:55:20;;;;;;;2.78;2.55;;;12.50;92.50;;;;;;4999761;28;20306;-77
2022/01/15 11:57:58;;;;;;;2.95;2.60;;;12.20;92.00;;;;;;5032844;28;20240;-76
2022/01/15 12:00:45;;;;;;;2.22;2.03;;;11.80;92.80;;;;;;5032546;28;20210;-77
2022/01/15 12:03:15;;;;;;;2.20;2.00;;;11.20;93.40;;;;;;5032440;28;20220;-76
2022/01/15 12:06:01;;;;;;;3.28;2.63;;;10.50;93.70;;;;;;5032996;28;20233;-77
2022/01/15 12:08:34;;;;;;;2.58;2.25;;;10.10;94.60;;;;;;5033282;28;20233;-77
2022/01/15 12:11:05;;;;;;;2.60;2.42;;;10.40;95.00;;;;;;5032438;28;20202;-76
2022/01/15 12:13:51;;;;;;;1.75;1.65;;;10.80;94.40;;;;;;5032914;28;20212;-77
2022/01/15 12:16:29;;;;;;;3.08;2.58;;;11.60;92.70;;;;;;5032945;28;20202;-77
2022/01/15 12:19:00;;;;;;;2.78;2.38;;;11.60;92.00;;;;;;5032674;28;20218;-77
2022/01/15 12:21:49;;;;;;;5.20;2.88;;;11.50;92.00;;;;;;5032932;28;20210;-77
2022/01/15 12:24:53;;;;;;;3.63;2.47;;;11.30;92.80;;;;;;5033018;28;20238;-77
2022/01/15 12:27:26;;;;;;;2.00;1.80;;;11.40;92.40;;;;;;5032773;28;20232;-76
2022/01/15 12:30:06;;;;;;;2.25;2.05;;;11.40;92.90;;;;;;5032498;28;20294;-77
2022/01/15 12:32:38;;;;;;;3.63;2.78;;;12.10;93.10;;;;;;5032878;28;20210;-76
2022/01/15 12:35:15;;;;;;;4.07;2.40;;;12.20;91.50;;;;;;5032922;28;20233;-76
2022/01/15 12:37:54;;;;;;;2.65;2.45;;;12.40;91.30;;;;;;5032669;28;20206;-77
2022/01/15 12:40:34;;;;;;;2.28;1.98;;;12.40;91.30;;;;;;5032107;28;20242;-77
2022/01/15 12:43:05;;;;;;;4.85;2.35;;;12.60;90.00;;;;;;5032234;28;20247;-77
2022/01/15 12:45:35;;;;;;;2.30;2.05;;;12.50;90.10;;;;;;5032559;28;20226;-77
2022/01/15 12:48:04;;;;;;;3.20;2.67;;;12.60;88.90;;;;;;5032533;28;20236;-77
2022/01/15 12:50:45;;;;;;;8.30;2.72;;;12.70;89.70;;;;;;5031955;28;20314;-77
2022/01/15 12:53:15;;;;;;;3.22;2.47;;;12.60;89.80;;;;;;5032334;28;20217;-77
2022/01/15 12:55:44;;;;;;;4.35;3.00;;;12.60;89.60;;;;;;5031967;28;20222;-77
2022/01/15 12:58:16;;;;;;;4.80;3.60;;;12.90;89.10;;;;;;5032336;28;20215;-77
2022/01/15 13:00:44;;;;;;;2.60;2.38;;;13.00;88.30;;;;;;5032290;28;20293;-76
2022/01/15 13:03:14;;;;;;;2.40;2.20;;;13.20;87.60;;;;;;5031975;28;20198;-77
2022/01/15 13:05:46;;;;;;;3.00;2.70;;;13.40;87.60;;;;;;5032033;28;20314;-77
2022/01/15 13:08:16;;;;;;;4.97;3.10;;;13.30;88.00;;;;;;5032272;28;20289;-77
2022/01/15 13:10:48;;;;;;;9.52;3.10;;;13.90;85.90;;;;;;5035109;28;20210;-77
2022/01/15 13:13:23;;;;;;;2.45;2.28;;;14.50;83.70;;;;;;5036504;28;20210;-77
2022/01/15 13:16:02;;;;;;;2.60;2.40;;;14.30;82.30;;;;;;5036579;28;20241;-77
2022/01/15 13:18:32;;;;;;;2.67;2.45;;;14.40;81.10;;;;;;5036158;28;20210;-77
2022/01/15 13:21:03;;;;;;;3.75;2.22;;;14.40;81.40;;;;;;5036095;28;20211;-77
2022/01/15 13:23:41;;;;;;;2.70;2.50;;;14.10;84.80;;;;;;5036255;28;20214;-76
2022/01/15 13:26:13;;;;;;;3.83;2.20;;;14.20;80.70;;;;;;5036297;28;20230;-77
2022/01/15 13:28:43;;;;;;;2.45;2.25;;;13.80;80.00;;;;;;5035805;28;20202;-76
2022/01/15 13:31:11;;;;;;;2.40;2.20;;;13.60;82.30;;;;;;5036026;28;20240;-76